createdAt,value
2017-07-28T00:00:03.578Z,0
2017-07-28T00:01:03.688Z,0
2017-07-28T00:02:03.644Z,0
2017-07-28T00:03:03.592Z,0
2017-07-28T00:04:03.628Z,0
2017-07-28T00:05:03.622Z,0
2017-07-28T00:06:03.592Z,0
2017-07-28T00:07:03.695Z,0
2017-07-28T00:08:03.682Z,0
2017-07-28T00:09:03.662Z,0
2017-07-28T00:10:03.600Z,0
2017-07-28T00:11:03.620Z,0
2017-07-28T00:12:03.619Z,0
2017-07-28T00:13:03.774Z,0
2017-07-28T00:14:03.619Z,0
2017-07-28T00:15:03.653Z,0
2017-07-28T00:16:03.596Z,0
2017-07-28T00:17:03.618Z,0
2017-07-28T00:18:03.618Z,0
2017-07-28T00:19:03.655Z,0
2017-07-28T00:20:03.658Z,0
2017-07-28T00:21:03.658Z,0
2017-07-28T00:22:03.623Z,0
2017-07-28T00:23:03.621Z,0
2017-07-28T00:24:03.624Z,0
2017-07-28T00:25:03.595Z,0
2017-07-28T00:26:03.601Z,0
2017-07-28T00:27:03.595Z,0
2017-07-28T00:28:03.597Z,0
2017-07-28T00:29:03.600Z,0
2017-07-28T00:30:03.627Z,0
2017-07-28T00:31:03.604Z,0
2017-07-28T00:32:03.601Z,0
2017-07-28T00:33:03.606Z,0
2017-07-28T00:34:03.662Z,0
2017-07-28T00:35:03.669Z,0
2017-07-28T00:36:03.669Z,0
2017-07-28T00:37:03.664Z,0
2017-07-28T00:38:03.637Z,0
2017-07-28T00:39:03.634Z,0
2017-07-28T00:40:03.668Z,0
2017-07-28T00:41:03.670Z,0
2017-07-28T00:42:03.666Z,0
2017-07-28T00:43:03.636Z,0
2017-07-28T00:44:03.633Z,0
2017-07-28T00:45:03.607Z,0
2017-07-28T00:46:03.608Z,0
2017-07-28T00:47:03.609Z,0
2017-07-28T00:48:03.615Z,0
2017-07-28T00:49:03.612Z,0
2017-07-28T00:50:03.612Z,0
2017-07-28T00:51:03.685Z,0
2017-07-28T00:52:03.656Z,0
2017-07-28T00:53:03.677Z,0
2017-07-28T00:54:03.699Z,0
2017-07-28T00:55:03.713Z,0
2017-07-28T00:56:03.656Z,0
2017-07-28T00:57:03.714Z,0
2017-07-28T00:58:03.735Z,0
2017-07-28T00:59:03.696Z,0
2017-07-28T01:00:03.664Z,0
2017-07-28T01:01:03.639Z,0
2017-07-28T01:02:03.676Z,0
2017-07-28T01:03:03.637Z,0
2017-07-28T01:04:03.610Z,0
2017-07-28T01:05:03.629Z,0
2017-07-28T01:06:03.626Z,0
2017-07-28T01:07:03.593Z,0
2017-07-28T01:08:03.627Z,0
2017-07-28T01:09:03.612Z,0
2017-07-28T01:10:03.681Z,0
2017-07-28T01:11:03.654Z,0
2017-07-28T01:12:03.654Z,0
2017-07-28T01:13:03.653Z,0
2017-07-28T01:14:03.658Z,0
2017-07-28T01:15:03.628Z,0
2017-07-28T01:16:03.654Z,0
2017-07-28T01:17:03.654Z,0
2017-07-28T01:18:03.694Z,0
2017-07-28T01:19:03.655Z,0
2017-07-28T01:20:03.661Z,0
2017-07-28T01:21:03.722Z,0
2017-07-28T01:22:03.635Z,0
2017-07-28T01:23:03.704Z,0
2017-07-28T01:24:03.697Z,0
2017-07-28T01:25:03.639Z,0
2017-07-28T01:26:03.703Z,0
2017-07-28T01:27:03.640Z,0
2017-07-28T01:28:03.669Z,0
2017-07-28T01:29:03.743Z,0
2017-07-28T01:30:03.710Z,0
2017-07-28T01:31:03.709Z,0
2017-07-28T01:32:03.669Z,0
2017-07-28T01:33:03.708Z,0
2017-07-28T01:34:03.639Z,0
2017-07-28T01:35:03.732Z,0
2017-07-28T01:36:03.645Z,0
2017-07-28T01:37:03.675Z,0
2017-07-28T01:38:03.675Z,0
2017-07-28T01:39:03.736Z,0
2017-07-28T01:40:03.680Z,0
2017-07-28T01:41:03.737Z,0
2017-07-28T01:42:03.715Z,0
2017-07-28T01:43:03.683Z,0
2017-07-28T01:44:03.684Z,0
2017-07-28T01:45:03.719Z,0
2017-07-28T01:46:03.684Z,0
2017-07-28T01:47:03.647Z,0
2017-07-28T01:48:03.652Z,0
2017-07-28T01:49:03.688Z,0
2017-07-28T01:50:03.711Z,0
2017-07-28T01:51:03.741Z,0
2017-07-28T01:52:03.684Z,0
2017-07-28T01:53:03.651Z,0
2017-07-28T01:54:03.687Z,0
2017-07-28T01:55:03.663Z,0
2017-07-28T01:56:03.653Z,0
2017-07-28T01:57:03.692Z,0
2017-07-28T01:58:03.719Z,0
2017-07-28T01:59:03.724Z,0
2017-07-28T02:00:03.654Z,0
2017-07-28T02:01:03.679Z,0
2017-07-28T02:02:03.679Z,0
2017-07-28T02:03:03.716Z,0
2017-07-28T02:04:03.657Z,0
2017-07-28T02:05:03.656Z,0
2017-07-28T02:06:03.692Z,0
2017-07-28T02:07:03.720Z,0
2017-07-28T02:08:03.664Z,0
2017-07-28T02:09:03.691Z,0
2017-07-28T02:10:03.664Z,0
2017-07-28T02:11:03.685Z,0
2017-07-28T02:12:03.695Z,0
2017-07-28T02:13:03.745Z,0
2017-07-28T02:14:03.687Z,0
2017-07-28T02:15:03.803Z,0
2017-07-28T02:16:03.733Z,0
2017-07-28T02:17:03.669Z,0
2017-07-28T02:18:03.735Z,0
2017-07-28T02:19:03.690Z,0
2017-07-28T02:20:03.722Z,0
2017-07-28T02:21:03.724Z,0
2017-07-28T02:22:03.703Z,0
2017-07-28T02:23:03.727Z,0
2017-07-28T02:24:03.702Z,0
2017-07-28T02:25:03.702Z,0
2017-07-28T02:26:03.730Z,0
2017-07-28T02:27:03.708Z,0
2017-07-28T02:28:03.742Z,0
2017-07-28T02:29:03.697Z,0
2017-07-28T02:30:03.670Z,0
2017-07-28T02:31:03.730Z,0
2017-07-28T02:32:03.693Z,0
2017-07-28T02:33:03.712Z,0
2017-07-28T02:34:03.677Z,0
2017-07-28T02:35:03.765Z,0
2017-07-28T02:36:03.764Z,0
2017-07-28T02:37:03.742Z,0
2017-07-28T02:38:03.710Z,0
2017-07-28T02:39:03.771Z,0
2017-07-28T02:40:03.721Z,0
2017-07-28T02:41:03.686Z,0
2017-07-28T02:42:03.720Z,0
2017-07-28T02:43:03.722Z,0
2017-07-28T02:44:03.774Z,0
2017-07-28T02:45:03.683Z,0
2017-07-28T02:46:03.739Z,0
2017-07-28T02:47:03.773Z,0
2017-07-28T02:48:03.684Z,0
2017-07-28T02:49:03.704Z,0
2017-07-28T02:50:03.686Z,0
2017-07-28T02:51:03.722Z,0
2017-07-28T02:52:03.707Z,0
2017-07-28T02:53:03.723Z,0
2017-07-28T02:54:03.744Z,0
2017-07-28T02:55:03.706Z,0
2017-07-28T02:56:03.689Z,0
2017-07-28T02:57:03.719Z,0
2017-07-28T02:58:03.727Z,0
2017-07-28T02:59:03.744Z,0
2017-07-28T03:00:03.727Z,0
2017-07-28T03:01:03.710Z,0
2017-07-28T03:02:03.730Z,0
2017-07-28T03:03:03.786Z,0
2017-07-28T03:04:03.695Z,0
2017-07-28T03:05:03.728Z,0
2017-07-28T03:06:03.825Z,0
2017-07-28T03:07:03.731Z,0
2017-07-28T03:08:03.750Z,0
2017-07-28T03:09:03.715Z,0
2017-07-28T03:10:03.793Z,0
2017-07-28T03:11:03.713Z,0
2017-07-28T03:12:03.733Z,0
2017-07-28T03:13:03.765Z,0
2017-07-28T03:14:03.757Z,0
2017-07-28T03:15:03.767Z,0
2017-07-28T03:16:03.716Z,0
2017-07-28T03:17:03.731Z,0
2017-07-28T03:18:03.835Z,0
2017-07-28T03:19:03.761Z,0
2017-07-28T03:20:03.723Z,0
2017-07-28T03:21:03.739Z,0
2017-07-28T03:22:03.760Z,0
2017-07-28T03:23:03.704Z,0
2017-07-28T03:24:03.744Z,5
2017-07-28T03:25:03.798Z,5
2017-07-28T03:26:03.700Z,5
2017-07-28T03:27:03.740Z,5
2017-07-28T03:28:03.744Z,5
2017-07-28T03:29:03.761Z,0
2017-07-28T03:30:03.717Z,0
2017-07-28T03:31:03.780Z,0
2017-07-28T03:32:03.725Z,5
2017-07-28T03:33:03.742Z,5
2017-07-28T03:34:03.746Z,5
2017-07-28T03:35:03.747Z,5
2017-07-28T03:36:03.749Z,5
2017-07-28T03:37:03.745Z,11
2017-07-28T03:38:03.714Z,11
2017-07-28T03:39:03.753Z,11
2017-07-28T03:40:03.745Z,11
2017-07-28T03:41:03.809Z,16
2017-07-28T03:42:03.781Z,16
2017-07-28T03:43:03.784Z,16
2017-07-28T03:44:03.721Z,22
2017-07-28T03:45:03.714Z,22
2017-07-28T03:46:03.801Z,22
2017-07-28T03:47:03.783Z,16
2017-07-28T03:48:03.754Z,16
2017-07-28T03:49:03.754Z,16
2017-07-28T03:50:03.715Z,16
2017-07-28T03:51:03.779Z,16
2017-07-28T03:52:03.783Z,22
2017-07-28T03:53:03.784Z,22
2017-07-28T03:54:03.751Z,22
2017-07-28T03:55:03.782Z,16
2017-07-28T03:56:03.743Z,16
2017-07-28T03:57:03.723Z,16
2017-07-28T03:58:03.745Z,11
2017-07-28T03:59:03.808Z,11
2017-07-28T04:00:03.722Z,11
2017-07-28T04:01:03.764Z,11
2017-07-28T04:02:03.724Z,16
2017-07-28T04:03:03.797Z,16
2017-07-28T04:04:03.732Z,16
2017-07-28T04:05:03.727Z,22
2017-07-28T04:06:03.788Z,22
2017-07-28T04:07:03.751Z,28
2017-07-28T04:08:03.793Z,28
2017-07-28T04:09:03.804Z,33
2017-07-28T04:10:03.763Z,39
2017-07-28T04:11:03.766Z,45
2017-07-28T04:12:03.788Z,45
2017-07-28T04:13:03.819Z,45
2017-07-28T04:14:03.767Z,56
2017-07-28T04:15:03.754Z,61
2017-07-28T04:16:03.769Z,73
2017-07-28T04:17:03.821Z,78
2017-07-28T04:18:03.824Z,78
2017-07-28T04:19:03.759Z,78
2017-07-28T04:20:03.758Z,73
2017-07-28T04:21:03.759Z,73
2017-07-28T04:22:03.775Z,73
2017-07-28T04:23:03.804Z,67
2017-07-28T04:24:03.750Z,67
2017-07-28T04:25:03.738Z,78
2017-07-28T04:26:03.808Z,90
2017-07-28T04:27:03.772Z,101
2017-07-28T04:28:03.795Z,101
2017-07-28T04:29:03.807Z,95
2017-07-28T04:30:03.741Z,95
2017-07-28T04:31:03.776Z,90
2017-07-28T04:32:03.745Z,84
2017-07-28T04:33:03.776Z,84
2017-07-28T04:34:03.825Z,95
2017-07-28T04:35:03.783Z,123
2017-07-28T04:36:03.739Z,129
2017-07-28T04:37:03.748Z,135
2017-07-28T04:38:03.779Z,146
2017-07-28T04:39:03.763Z,146
2017-07-28T04:40:03.814Z,151
2017-07-28T04:41:03.780Z,140
2017-07-28T04:42:03.781Z,112
2017-07-28T04:43:03.777Z,106
2017-07-28T04:44:03.749Z,112
2017-07-28T04:45:03.783Z,123
2017-07-28T04:46:03.782Z,129
2017-07-28T04:47:03.846Z,140
2017-07-28T04:48:03.750Z,151
2017-07-28T04:49:03.783Z,174
2017-07-28T04:50:03.784Z,196
2017-07-28T04:51:03.785Z,208
2017-07-28T04:52:03.788Z,213
2017-07-28T04:53:03.785Z,219
2017-07-28T04:54:03.785Z,241
2017-07-28T04:55:03.824Z,258
2017-07-28T04:56:03.790Z,281
2017-07-28T04:57:03.823Z,298
2017-07-28T04:58:03.785Z,326
2017-07-28T04:59:03.838Z,354
2017-07-28T05:00:03.761Z,393
2017-07-28T05:01:03.824Z,393
2017-07-28T05:02:03.795Z,410
2017-07-28T05:03:03.795Z,444
2017-07-28T05:04:03.827Z,455
2017-07-28T05:05:03.796Z,483
2017-07-28T05:06:03.799Z,528
2017-07-28T05:07:03.764Z,534
2017-07-28T05:08:03.765Z,545
2017-07-28T05:09:03.836Z,556
2017-07-28T05:10:03.793Z,562
2017-07-28T05:11:03.837Z,568
2017-07-28T05:12:03.795Z,585
2017-07-28T05:13:03.766Z,596
2017-07-28T05:14:03.798Z,590
2017-07-28T05:15:03.832Z,596
2017-07-28T05:16:03.835Z,596
2017-07-28T05:17:03.836Z,585
2017-07-28T05:18:03.837Z,601
2017-07-28T05:19:03.835Z,596
2017-07-28T05:20:03.843Z,613
2017-07-28T05:21:03.771Z,607
2017-07-28T05:22:03.803Z,607
2017-07-28T05:23:03.856Z,624
2017-07-28T05:24:03.809Z,641
2017-07-28T05:25:03.841Z,652
2017-07-28T05:26:03.774Z,691
2017-07-28T05:27:03.866Z,714
2017-07-28T05:28:03.843Z,748
2017-07-28T05:29:03.858Z,759
2017-07-28T05:30:03.844Z,753
2017-07-28T05:31:03.843Z,753
2017-07-28T05:32:03.781Z,765
2017-07-28T05:33:03.894Z,753
2017-07-28T05:34:03.814Z,770
2017-07-28T05:35:03.781Z,776
2017-07-28T05:36:03.853Z,765
2017-07-28T05:37:03.814Z,770
2017-07-28T05:38:03.850Z,765
2017-07-28T05:39:03.848Z,759
2017-07-28T05:40:03.850Z,748
2017-07-28T05:41:03.787Z,742
2017-07-28T05:42:03.783Z,748
2017-07-28T05:43:03.826Z,770
2017-07-28T05:44:03.785Z,770
2017-07-28T05:45:03.846Z,742
2017-07-28T05:46:03.813Z,731
2017-07-28T05:47:03.852Z,731
2017-07-28T05:48:03.823Z,731
2017-07-28T05:49:03.788Z,725
2017-07-28T05:50:03.788Z,725
2017-07-28T05:51:03.790Z,871
2017-07-28T05:52:03.822Z,1226
2017-07-28T05:53:03.787Z,1389
2017-07-28T05:54:03.859Z,1473
2017-07-28T05:55:03.813Z,1530
2017-07-28T05:56:03.790Z,1597
2017-07-28T05:57:03.819Z,1631
2017-07-28T05:58:03.792Z,1636
2017-07-28T05:59:03.793Z,1580
2017-07-28T06:00:03.860Z,1597
2017-07-28T06:01:03.796Z,1653
2017-07-28T06:02:03.796Z,1710
2017-07-28T06:03:03.925Z,1760
2017-07-28T06:04:03.864Z,1783
2017-07-28T06:05:03.882Z,1760
2017-07-28T06:06:03.796Z,1726
2017-07-28T06:07:03.829Z,1676
2017-07-28T06:08:03.887Z,1625
2017-07-28T06:09:03.800Z,1546
2017-07-28T06:10:03.864Z,1513
2017-07-28T06:11:03.803Z,1338
2017-07-28T06:12:03.800Z,1276
2017-07-28T06:13:03.886Z,1226
2017-07-28T06:14:03.802Z,1181
2017-07-28T06:15:03.804Z,1158
2017-07-28T06:16:03.839Z,1147
2017-07-28T06:17:03.869Z,1158
2017-07-28T06:18:03.870Z,1164
2017-07-28T06:19:03.869Z,1181
2017-07-28T06:20:03.850Z,1158
2017-07-28T06:21:03.842Z,1181
2017-07-28T06:22:03.804Z,1186
2017-07-28T06:23:03.806Z,1215
2017-07-28T06:24:03.888Z,1237
2017-07-28T06:25:03.808Z,1186
2017-07-28T06:26:03.838Z,1220
2017-07-28T06:27:03.811Z,1175
2017-07-28T06:28:03.845Z,1186
2017-07-28T06:29:03.842Z,1203
2017-07-28T06:30:03.878Z,1215
2017-07-28T06:31:03.874Z,1985
2017-07-28T06:32:03.813Z,1996
2017-07-28T06:33:03.876Z,2053
2017-07-28T06:34:03.813Z,2086
2017-07-28T06:35:03.855Z,2098
2017-07-28T06:36:03.845Z,2131
2017-07-28T06:37:03.815Z,2205
2017-07-28T06:38:03.914Z,2233
2017-07-28T06:39:03.882Z,2250
2017-07-28T06:40:03.817Z,2300
2017-07-28T06:41:03.816Z,2379
2017-07-28T06:42:03.818Z,2452
2017-07-28T06:43:03.818Z,1783
2017-07-28T06:44:03.905Z,2700
2017-07-28T06:45:03.821Z,2694
2017-07-28T06:46:03.852Z,2626
2017-07-28T06:47:03.851Z,2109
2017-07-28T06:48:03.831Z,1698
2017-07-28T06:49:03.825Z,2829
2017-07-28T06:50:03.857Z,2891
2017-07-28T06:51:03.854Z,2739
2017-07-28T06:52:03.828Z,1738
2017-07-28T06:53:03.824Z,2385
2017-07-28T06:54:03.899Z,2936
2017-07-28T06:55:03.878Z,2891
2017-07-28T06:56:03.858Z,1434
2017-07-28T06:57:03.825Z,2160
2017-07-28T06:58:03.893Z,1389
2017-07-28T06:59:03.827Z,1355
2017-07-28T07:00:03.897Z,1530
2017-07-28T07:01:03.830Z,1620
2017-07-28T07:02:03.897Z,1299
2017-07-28T07:03:03.863Z,1158
2017-07-28T07:04:03.831Z,1023
2017-07-28T07:05:03.895Z,1035
2017-07-28T07:06:03.899Z,1113
2017-07-28T07:07:03.896Z,1192
2017-07-28T07:08:03.862Z,1260
2017-07-28T07:09:03.864Z,1220
2017-07-28T07:10:03.864Z,1113
2017-07-28T07:11:03.833Z,1091
2017-07-28T07:12:03.864Z,1113
2017-07-28T07:13:03.916Z,1175
2017-07-28T07:14:03.900Z,1254
2017-07-28T07:15:03.906Z,1333
2017-07-28T07:16:03.871Z,1361
2017-07-28T07:17:03.838Z,1417
2017-07-28T07:18:03.840Z,1310
2017-07-28T07:19:03.869Z,1732
2017-07-28T07:20:03.870Z,1321
2017-07-28T07:21:03.871Z,1333
2017-07-28T07:22:03.841Z,1355
2017-07-28T07:23:03.906Z,1310
2017-07-28T07:24:03.871Z,1226
2017-07-28T07:25:03.842Z,1344
2017-07-28T07:26:03.842Z,1237
2017-07-28T07:27:03.876Z,1209
2017-07-28T07:28:03.875Z,1231
2017-07-28T07:29:03.877Z,1220
2017-07-28T07:30:03.877Z,1248
2017-07-28T07:31:03.876Z,1456
2017-07-28T07:32:03.881Z,1321
2017-07-28T07:33:03.881Z,1366
2017-07-28T07:34:03.877Z,1350
2017-07-28T07:35:03.881Z,1321
2017-07-28T07:36:03.880Z,1372
2017-07-28T07:37:03.884Z,1507
2017-07-28T07:38:03.880Z,1552
2017-07-28T07:39:03.917Z,1659
2017-07-28T07:40:03.921Z,1726
2017-07-28T07:41:03.884Z,1558
2017-07-28T07:42:03.888Z,1783
2017-07-28T07:43:03.885Z,2053
2017-07-28T07:44:03.887Z,1338
2017-07-28T07:45:03.919Z,1366
2017-07-28T07:46:03.855Z,2047
2017-07-28T07:47:03.918Z,2964
2017-07-28T07:48:03.856Z,2643
2017-07-28T07:49:03.890Z,1850
2017-07-28T07:50:03.889Z,1603
2017-07-28T07:51:03.890Z,2182
2017-07-28T07:52:03.887Z,1878
2017-07-28T07:53:03.892Z,3830
2017-07-28T07:54:03.888Z,2958
2017-07-28T07:55:03.892Z,2930
2017-07-28T07:56:03.862Z,1856
2017-07-28T07:57:03.928Z,1749
2017-07-28T07:58:03.927Z,3965
2017-07-28T07:59:03.900Z,2964
2017-07-28T08:00:03.897Z,4072
2017-07-28T08:01:03.864Z,1963
2017-07-28T08:02:03.892Z,2323
2017-07-28T08:03:03.933Z,2413
2017-07-28T08:04:03.866Z,2300
2017-07-28T08:05:03.893Z,2137
2017-07-28T08:06:03.894Z,2238
2017-07-28T08:07:03.930Z,2480
2017-07-28T08:08:03.899Z,3285
2017-07-28T08:09:03.868Z,1991
2017-07-28T08:10:03.997Z,1878
2017-07-28T08:11:03.931Z,3515
2017-07-28T08:12:03.934Z,4415
2017-07-28T08:13:03.872Z,4584
2017-07-28T08:14:03.876Z,4601
2017-07-28T08:15:03.903Z,2289
2017-07-28T08:16:03.936Z,4601
2017-07-28T08:17:03.942Z,4736
2017-07-28T08:18:03.936Z,2863
2017-07-28T08:19:03.903Z,4618
2017-07-28T08:20:03.940Z,4657
2017-07-28T08:21:03.874Z,3296
2017-07-28T08:22:03.939Z,1839
2017-07-28T08:23:03.940Z,1923
2017-07-28T08:24:03.917Z,2058
2017-07-28T08:25:03.941Z,2289
2017-07-28T08:26:03.945Z,3560
2017-07-28T08:27:03.946Z,2688
2017-07-28T08:28:03.950Z,3318
2017-07-28T08:29:03.944Z,2396
2017-07-28T08:30:03.945Z,2356
2017-07-28T08:31:03.921Z,3026
2017-07-28T08:32:03.947Z,2806
2017-07-28T08:33:03.883Z,3071
2017-07-28T08:34:03.948Z,3020
2017-07-28T08:35:03.881Z,5017
2017-07-28T08:36:03.949Z,4291
2017-07-28T08:37:03.883Z,3144
2017-07-28T08:38:03.997Z,4837
2017-07-28T08:39:03.957Z,5236
2017-07-28T08:40:03.958Z,4792
2017-07-28T08:41:03.953Z,5332
2017-07-28T08:42:03.916Z,2632
2017-07-28T08:43:03.925Z,4961
2017-07-28T08:44:03.958Z,2649
2017-07-28T08:45:03.949Z,2542
2017-07-28T08:46:03.920Z,2514
2017-07-28T08:47:03.956Z,2536
2017-07-28T08:48:03.889Z,2525
2017-07-28T08:49:03.929Z,2317
2017-07-28T08:50:03.957Z,2306
2017-07-28T08:51:03.891Z,2503
2017-07-28T08:52:03.890Z,2340
2017-07-28T08:53:03.960Z,2261
2017-07-28T08:54:03.893Z,2373
2017-07-28T08:55:03.960Z,2514
2017-07-28T08:56:03.925Z,2919
2017-07-28T08:57:03.961Z,2688
2017-07-28T08:58:03.895Z,3538
2017-07-28T08:59:03.929Z,4590
2017-07-28T09:00:03.898Z,2688
2017-07-28T09:01:03.965Z,2621
2017-07-28T09:02:03.925Z,2497
2017-07-28T09:03:03.899Z,2401
2017-07-28T09:04:03.968Z,2401
2017-07-28T09:05:03.964Z,2334
2017-07-28T09:06:03.930Z,2396
2017-07-28T09:07:03.967Z,2930
2017-07-28T09:08:03.903Z,2548
2017-07-28T09:09:03.969Z,2480
2017-07-28T09:10:03.971Z,2390
2017-07-28T09:11:03.969Z,4140
2017-07-28T09:12:03.970Z,2632
2017-07-28T09:13:03.934Z,2716
2017-07-28T09:14:03.934Z,3352
2017-07-28T09:15:03.907Z,2733
2017-07-28T09:16:03.972Z,2340
2017-07-28T09:17:03.908Z,2289
2017-07-28T09:18:03.972Z,2008
2017-07-28T09:19:03.977Z,1946
2017-07-28T09:20:03.974Z,1985
2017-07-28T09:21:03.975Z,2081
2017-07-28T09:22:03.978Z,2295
2017-07-28T09:24:03.947Z,2593
2017-07-28T09:25:03.976Z,2221
2017-07-28T09:26:03.979Z,2193
2017-07-28T09:27:03.944Z,2081
2017-07-28T09:28:03.947Z,2098
2017-07-28T09:29:03.977Z,2098
2017-07-28T09:30:03.911Z,2103
2017-07-28T09:31:03.914Z,2317
2017-07-28T09:32:03.987Z,2441
2017-07-28T09:33:03.946Z,2750
2017-07-28T09:34:03.917Z,4505
2017-07-28T09:35:03.984Z,2019
2017-07-28T09:36:03.953Z,1951
2017-07-28T09:37:03.948Z,1895
2017-07-28T09:38:03.919Z,2126
2017-07-28T09:39:03.976Z,2587
2017-07-28T09:40:03.922Z,3071
2017-07-28T09:41:03.950Z,3470
2017-07-28T09:42:03.952Z,2986
2017-07-28T09:43:03.951Z,2835
2017-07-28T09:44:03.954Z,2531
2017-07-28T09:45:04.006Z,2306
2017-07-28T09:46:03.990Z,2216
2017-07-28T09:47:03.955Z,1867
2017-07-28T09:48:03.924Z,1636
2017-07-28T09:49:03.958Z,1620
2017-07-28T09:50:03.993Z,1760
2017-07-28T09:51:03.991Z,2013
2017-07-28T09:52:03.958Z,2081
2017-07-28T09:53:03.960Z,2621
2017-07-28T09:54:03.928Z,2604
2017-07-28T09:55:03.993Z,2351
2017-07-28T09:56:03.995Z,2328
2017-07-28T09:57:03.932Z,2351
2017-07-28T09:58:03.930Z,2767
2017-07-28T09:59:03.931Z,3172
2017-07-28T10:00:04.000Z,3352
2017-07-28T10:01:03.965Z,3538
2017-07-28T10:02:03.933Z,2992
2017-07-28T10:03:03.936Z,2902
2017-07-28T10:04:03.965Z,2520
2017-07-28T10:05:03.968Z,2463
2017-07-28T10:06:03.963Z,2632
2017-07-28T10:07:03.967Z,2716
2017-07-28T10:08:03.937Z,2722
2017-07-28T10:09:03.970Z,2632
2017-07-28T10:10:04.064Z,2941
2017-07-28T10:11:04.018Z,2559
2017-07-28T10:12:03.976Z,2671
2017-07-28T10:13:03.940Z,3082
2017-07-28T10:14:03.937Z,2846
2017-07-28T10:15:03.973Z,2553
2017-07-28T10:16:03.977Z,2508
2017-07-28T10:17:03.974Z,2671
2017-07-28T10:18:04.013Z,2311
2017-07-28T10:19:03.975Z,2323
2017-07-28T10:20:03.944Z,2896
2017-07-28T10:21:04.013Z,2548
2017-07-28T10:22:03.976Z,2621
2017-07-28T10:23:03.978Z,2806
2017-07-28T10:24:03.976Z,5833
2017-07-28T10:25:03.947Z,3870
2017-07-28T10:26:03.978Z,4893
2017-07-28T10:27:03.948Z,5068
2017-07-28T10:28:04.018Z,3448
2017-07-28T10:29:03.980Z,3054
2017-07-28T10:30:03.980Z,3948
2017-07-28T10:31:03.980Z,3808
2017-07-28T10:32:03.980Z,6496
2017-07-28T10:33:03.951Z,6710
2017-07-28T10:34:03.980Z,6620
2017-07-28T10:35:03.951Z,3875
2017-07-28T10:36:03.986Z,5006
2017-07-28T10:37:03.953Z,2750
2017-07-28T10:38:03.987Z,2835
2017-07-28T10:39:03.983Z,2401
2017-07-28T10:40:03.985Z,2610
2017-07-28T10:41:03.958Z,3746
2017-07-28T10:42:04.022Z,2587
2017-07-28T10:43:03.986Z,4719
2017-07-28T10:44:04.022Z,2902
2017-07-28T10:45:03.991Z,2913
2017-07-28T10:46:04.020Z,2919
2017-07-28T10:47:03.995Z,2902
2017-07-28T10:48:03.990Z,4207
2017-07-28T10:49:04.031Z,2677
2017-07-28T10:50:03.990Z,2373
2017-07-28T10:51:04.027Z,2565
2017-07-28T10:52:03.961Z,3285
2017-07-28T10:53:03.963Z,3234
2017-07-28T10:54:03.993Z,3127
2017-07-28T10:55:03.964Z,2958
2017-07-28T10:56:03.966Z,6795
2017-07-28T10:57:04.032Z,6778
2017-07-28T10:58:03.964Z,3155
2017-07-28T10:59:03.965Z,2964
2017-07-28T11:00:03.997Z,3138
2017-07-28T11:01:03.996Z,2469
2017-07-28T11:02:03.969Z,2351
2017-07-28T11:03:03.970Z,2621
2017-07-28T11:04:04.034Z,2908
2017-07-28T11:05:03.998Z,6845
2017-07-28T11:06:04.004Z,4702
2017-07-28T11:07:04.038Z,4005
2017-07-28T11:08:04.003Z,3622
2017-07-28T11:09:04.002Z,3425
2017-07-28T11:10:04.008Z,2998
2017-07-28T11:11:04.047Z,2756
2017-07-28T11:12:03.987Z,2615
2017-07-28T11:13:04.002Z,3448
2017-07-28T11:14:04.045Z,3498
2017-07-28T11:15:04.008Z,3009
2017-07-28T11:16:04.044Z,3431
2017-07-28T11:17:03.974Z,4246
2017-07-28T11:18:04.057Z,4083
2017-07-28T11:19:03.974Z,4173
2017-07-28T11:20:04.012Z,3701
2017-07-28T11:21:04.010Z,3296
2017-07-28T11:22:04.012Z,4758
2017-07-28T11:23:04.012Z,6547
2017-07-28T11:24:04.046Z,6305
2017-07-28T11:25:04.030Z,6120
2017-07-28T11:26:04.013Z,5973
2017-07-28T11:27:04.021Z,5990
2017-07-28T11:28:03.984Z,6041
2017-07-28T11:29:04.016Z,5788
2017-07-28T11:30:03.986Z,6035
2017-07-28T11:31:03.985Z,6035
2017-07-28T11:32:04.021Z,5906
2017-07-28T11:33:04.050Z,6097
2017-07-28T11:34:04.019Z,5799
2017-07-28T11:35:04.017Z,6052
2017-07-28T11:36:03.987Z,3133
2017-07-28T11:37:03.986Z,5855
2017-07-28T11:38:04.019Z,5878
2017-07-28T11:39:03.990Z,6136
2017-07-28T11:40:04.054Z,5788
2017-07-28T11:41:04.057Z,5276
2017-07-28T11:42:04.112Z,4252
2017-07-28T11:43:04.061Z,4595
2017-07-28T11:44:04.026Z,3830
2017-07-28T11:45:04.106Z,4201
2017-07-28T11:46:04.022Z,3729
2017-07-28T11:47:03.992Z,3386
2017-07-28T11:48:03.999Z,4168
2017-07-28T11:49:04.051Z,7295
2017-07-28T11:50:04.024Z,6660
2017-07-28T11:51:04.029Z,6716
2017-07-28T11:52:03.997Z,7065
2017-07-28T11:53:04.030Z,6879
2017-07-28T11:54:04.026Z,6868
2017-07-28T11:55:04.064Z,6901
2017-07-28T11:56:04.031Z,4955
2017-07-28T11:57:04.030Z,6879
2017-07-28T11:58:04.031Z,5861
2017-07-28T11:59:04.001Z,6463
2017-07-28T12:00:04.001Z,6547
2017-07-28T12:01:04.004Z,6401
2017-07-28T12:02:04.034Z,2598
2017-07-28T12:03:04.001Z,2311
2017-07-28T12:04:04.034Z,3774
2017-07-28T12:05:04.036Z,6564
2017-07-28T12:06:04.005Z,6013
2017-07-28T12:07:04.007Z,6485
2017-07-28T12:08:04.007Z,2373
2017-07-28T12:09:04.070Z,2559
2017-07-28T12:10:04.038Z,6648
2017-07-28T12:11:04.072Z,2137
2017-07-28T12:12:04.038Z,2154
2017-07-28T12:13:04.073Z,2373
2017-07-28T12:14:04.041Z,5945
2017-07-28T12:15:04.077Z,6744
2017-07-28T12:16:04.044Z,6030
2017-07-28T12:17:04.079Z,5602
2017-07-28T12:18:04.076Z,4179
2017-07-28T12:19:04.083Z,4095
2017-07-28T12:20:04.083Z,3774
2017-07-28T12:21:04.044Z,3425
2017-07-28T12:22:04.049Z,3526
2017-07-28T12:23:04.044Z,4820
2017-07-28T12:24:04.046Z,3960
2017-07-28T12:25:04.079Z,3121
2017-07-28T12:26:04.014Z,2750
2017-07-28T12:27:04.017Z,2598
2017-07-28T12:28:04.049Z,2666
2017-07-28T12:29:04.016Z,2615
2017-07-28T12:30:04.052Z,2728
2017-07-28T12:31:04.048Z,2722
2017-07-28T12:32:04.019Z,3948
2017-07-28T12:33:04.051Z,3656
2017-07-28T12:34:04.050Z,2632
2017-07-28T12:35:04.020Z,4663
2017-07-28T12:36:04.086Z,5956
2017-07-28T12:37:04.087Z,5388
2017-07-28T12:38:04.089Z,5928
2017-07-28T12:39:04.023Z,5495
2017-07-28T12:40:04.025Z,4275
2017-07-28T12:41:04.055Z,4477
2017-07-28T12:42:04.032Z,3791
2017-07-28T12:43:04.056Z,4854
2017-07-28T12:44:04.097Z,5034
2017-07-28T12:45:04.058Z,4331
2017-07-28T12:46:04.055Z,5169
2017-07-28T12:47:04.059Z,4595
2017-07-28T12:48:04.059Z,5535
2017-07-28T12:49:04.030Z,2446
2017-07-28T12:50:04.032Z,5883
2017-07-28T12:51:04.099Z,6075
2017-07-28T12:52:04.097Z,6120
2017-07-28T12:53:04.095Z,5996
2017-07-28T12:54:04.062Z,5371
2017-07-28T12:55:04.103Z,4398
2017-07-28T12:56:04.037Z,5045
2017-07-28T12:57:04.101Z,5827
2017-07-28T12:58:04.064Z,5889
2017-07-28T12:59:04.035Z,5793
2017-07-28T13:00:04.036Z,5776
2017-07-28T13:01:04.104Z,5748
2017-07-28T13:02:04.065Z,5771
2017-07-28T13:03:04.069Z,5653
2017-07-28T13:04:04.070Z,5754
2017-07-28T13:05:04.071Z,5765
2017-07-28T13:06:04.070Z,4966
2017-07-28T13:07:04.039Z,2705
2017-07-28T13:08:04.058Z,1687
2017-07-28T13:09:04.043Z,1659
2017-07-28T13:11:04.073Z,5923
2017-07-28T13:12:04.043Z,5883
2017-07-28T13:13:04.072Z,5782
2017-07-28T13:14:04.079Z,5861
2017-07-28T13:15:04.045Z,5827
2017-07-28T13:16:04.074Z,5945
2017-07-28T13:17:04.086Z,5973
2017-07-28T13:18:04.044Z,6069
2017-07-28T13:19:04.114Z,6108
2017-07-28T13:20:04.110Z,6198
2017-07-28T13:21:04.078Z,6142
2017-07-28T13:22:04.117Z,6120
2017-07-28T13:23:04.079Z,5135
2017-07-28T13:24:04.083Z,2626
2017-07-28T13:25:04.078Z,6333
2017-07-28T13:26:04.053Z,6266
2017-07-28T13:27:04.048Z,6204
2017-07-28T13:28:04.054Z,6243
2017-07-28T13:29:04.050Z,6446
2017-07-28T13:30:04.123Z,3161
2017-07-28T13:31:04.121Z,2750
2017-07-28T13:32:04.092Z,2671
2017-07-28T13:33:04.119Z,2632
2017-07-28T13:34:04.127Z,2705
2017-07-28T13:35:04.056Z,5647
2017-07-28T13:36:04.089Z,4635
2017-07-28T13:37:04.057Z,3223
2017-07-28T13:38:04.059Z,3060
2017-07-28T13:39:04.127Z,2728
2017-07-28T13:40:04.088Z,2840
2017-07-28T13:41:04.096Z,3706
2017-07-28T13:42:04.128Z,3993
2017-07-28T13:43:04.176Z,3245
2017-07-28T13:44:04.131Z,3099
2017-07-28T13:45:04.253Z,4128
2017-07-28T13:46:04.062Z,3982
2017-07-28T13:47:04.133Z,5242
2017-07-28T13:48:04.128Z,5220